createdAt,value
2023-03-17T00:00:20.058Z,7.98
2023-03-17T00:02:47.971Z,7.99
2023-03-17T00:05:17.392Z,7.99
2023-03-17T00:07:45.299Z,7.98
2023-03-17T00:10:18.485Z,7.98
2023-03-17T00:12:46.356Z,7.98
2023-03-17T00:15:14.910Z,7.96
2023-03-17T00:17:43.353Z,7.95
2023-03-17T00:20:22.955Z,7.94
2023-03-17T00:22:51.100Z,7.94
2023-03-17T00:25:22.074Z,7.94
2023-03-17T00:27:50.253Z,7.94
2023-03-17T00:30:18.105Z,7.95
2023-03-17T00:32:46.677Z,7.93
2023-03-17T00:35:18.458Z,7.92
2023-03-17T00:37:46.755Z,7.92
2023-03-17T00:40:18.967Z,7.90
2023-03-17T00:42:47.975Z,7.87
2023-03-17T00:45:15.870Z,7.87
2023-03-17T00:47:43.601Z,7.85
2023-03-17T00:50:12.302Z,7.84
2023-03-17T00:52:40.641Z,7.80
2023-03-17T00:55:08.994Z,7.79
2023-03-17T00:57:36.716Z,7.76
2023-03-17T01:00:06.260Z,7.74
2023-03-17T01:02:33.800Z,7.70
2023-03-17T01:05:06.213Z,7.69
2023-03-17T01:07:35.082Z,7.68
2023-03-17T01:10:02.581Z,7.66
2023-03-17T01:12:30.154Z,7.66
2023-03-17T01:14:58.048Z,7.65
2023-03-17T01:17:26.905Z,7.63
2023-03-17T01:19:54.437Z,7.63
2023-03-17T01:22:21.910Z,7.63
2023-03-17T01:24:49.353Z,7.63
2023-03-17T01:27:17.529Z,7.62
2023-03-17T01:29:45.025Z,7.62
2023-03-17T01:32:12.902Z,7.62
2023-03-17T01:34:41.758Z,7.60
2023-03-17T01:37:09.637Z,7.59
2023-03-17T01:39:37.116Z,7.58
2023-03-17T01:42:05.800Z,7.58
2023-03-17T01:44:33.442Z,7.58
2023-03-17T01:47:01.658Z,7.58
2023-03-17T01:49:30.330Z,7.56
2023-03-17T01:52:01.009Z,7.55
2023-03-17T01:54:30.695Z,7.52
2023-03-17T01:56:58.577Z,7.52
2023-03-17T01:59:27.139Z,7.51
2023-03-17T02:01:56.605Z,7.49
2023-03-17T02:04:24.128Z,7.48
2023-03-17T02:06:57.917Z,7.48
2023-03-17T02:09:27.455Z,7.46
2023-03-17T02:11:55.594Z,7.46
2023-03-17T02:14:23.705Z,7.45
2023-03-17T02:16:51.306Z,7.45
2023-03-17T02:19:18.852Z,7.43
2023-03-17T02:21:48.056Z,7.43
2023-03-17T02:24:20.680Z,7.41
2023-03-17T02:26:48.853Z,7.41
2023-03-17T02:29:16.686Z,7.40
2023-03-17T02:31:45.350Z,7.40
2023-03-17T02:34:12.817Z,7.39
2023-03-17T02:36:40.663Z,7.38
2023-03-17T02:39:09.634Z,7.37
2023-03-17T02:41:37.273Z,7.36
2023-03-17T02:44:04.917Z,7.37
2023-03-17T02:46:32.613Z,7.37
2023-03-17T02:49:00.796Z,7.35
2023-03-17T02:51:28.347Z,7.36
2023-03-17T02:53:55.951Z,7.35
2023-03-17T02:56:25.146Z,7.33
2023-03-17T02:58:52.619Z,7.34
2023-03-17T03:01:21.171Z,7.34
2023-03-17T03:03:48.713Z,7.32
2023-03-17T03:06:16.842Z,7.33
2023-03-17T03:08:44.367Z,7.33
2023-03-17T03:11:12.109Z,7.33
2023-03-17T03:13:41.388Z,7.34
2023-03-17T03:16:09.127Z,7.33
2023-03-17T03:18:37.138Z,7.34
2023-03-17T03:21:04.868Z,7.33
2023-03-17T03:23:32.456Z,7.34
2023-03-17T03:25:59.925Z,7.32
2023-03-17T03:28:27.387Z,7.32
2023-03-17T03:30:56.245Z,7.31
2023-03-17T03:33:23.828Z,7.31
2023-03-17T03:35:51.400Z,7.31
2023-03-17T03:38:19.232Z,7.32
2023-03-17T03:40:46.819Z,7.33
2023-03-17T03:43:23.001Z,7.32
2023-03-17T03:45:51.802Z,7.33
2023-03-17T03:48:20.742Z,7.33
2023-03-17T03:50:48.256Z,7.34
2023-03-17T03:53:15.746Z,7.34
2023-03-17T03:55:43.315Z,7.35
2023-03-17T03:58:11.383Z,7.36
2023-03-17T04:00:38.877Z,7.36
2023-03-17T04:03:06.547Z,7.37
2023-03-17T04:05:35.418Z,7.38
2023-03-17T04:08:02.907Z,7.38
2023-03-17T04:10:31.887Z,7.40
2023-03-17T04:12:59.541Z,7.40
2023-03-17T04:15:27.166Z,7.40
2023-03-17T04:17:55.698Z,7.41
2023-03-17T04:20:23.332Z,7.43
2023-03-17T04:22:52.499Z,7.44
2023-03-17T04:25:20.095Z,7.43
2023-03-17T04:27:47.674Z,7.46
2023-03-17T04:30:16.804Z,7.46
2023-03-17T04:32:44.786Z,7.45
2023-03-17T04:35:13.331Z,7.44
2023-03-17T04:37:41.098Z,7.45
2023-03-17T04:40:10.952Z,7.45
2023-03-17T04:42:38.637Z,7.45
2023-03-17T04:45:06.694Z,7.45
2023-03-17T04:47:34.200Z,7.45
2023-03-17T04:50:01.891Z,7.44
2023-03-17T04:52:29.692Z,7.43
2023-03-17T04:54:57.198Z,7.42
2023-03-17T04:57:26.070Z,7.41
2023-03-17T04:59:53.620Z,7.40
2023-03-17T05:02:21.144Z,7.38
2023-03-17T05:04:48.850Z,7.37
2023-03-17T05:07:16.405Z,7.36
2023-03-17T05:09:43.952Z,7.33
2023-03-17T05:12:11.662Z,7.32
2023-03-17T05:14:40.530Z,7.29
2023-03-17T05:17:08.123Z,7.25
2023-03-17T05:19:35.571Z,7.25
2023-03-17T05:22:03.086Z,7.22
2023-03-17T05:24:30.572Z,7.21
2023-03-17T05:26:58.133Z,7.19
2023-03-17T05:29:25.615Z,7.17
2023-03-17T05:31:54.530Z,7.16
2023-03-17T05:34:22.041Z,7.15
2023-03-17T05:36:50.487Z,7.14
2023-03-17T05:39:18.049Z,7.14
2023-03-17T05:41:45.607Z,7.12
2023-03-17T05:44:13.465Z,7.12
2023-03-17T05:46:41.135Z,7.12
2023-03-17T05:49:10.101Z,7.13
2023-03-17T05:51:37.597Z,7.12
2023-03-17T05:54:05.093Z,7.12
2023-03-17T05:56:33.764Z,7.12
2023-03-17T05:59:01.799Z,7.13
2023-03-17T06:01:29.421Z,7.14
2023-03-17T06:03:56.921Z,7.15
2023-03-17T06:06:25.872Z,7.16
2023-03-17T06:08:53.434Z,7.17
2023-03-17T06:11:21.564Z,7.19
2023-03-17T06:13:49.193Z,7.20
2023-03-17T06:16:16.765Z,7.21
2023-03-17T06:18:44.567Z,7.23
2023-03-17T06:21:12.093Z,7.25
2023-03-17T06:23:40.994Z,7.27
2023-03-17T06:26:09.662Z,7.29
2023-03-17T06:28:37.163Z,7.30
2023-03-17T06:31:07.142Z,7.31
2023-03-17T06:33:35.315Z,7.33
2023-03-17T06:36:03.215Z,7.35
2023-03-17T06:38:30.731Z,7.37
2023-03-17T06:40:59.584Z,7.40
2023-03-17T06:43:27.472Z,7.42
2023-03-17T06:45:55.090Z,7.43
2023-03-17T06:48:23.447Z,7.45
2023-03-17T06:50:51.312Z,7.49
2023-03-17T06:53:18.820Z,7.51
2023-03-17T06:55:46.402Z,7.52
2023-03-17T06:58:15.889Z,7.54
2023-03-17T07:00:45.484Z,7.56
2023-03-17T07:03:13.044Z,7.56
2023-03-17T07:05:40.764Z,7.58
2023-03-17T07:08:08.714Z,7.59
2023-03-17T07:10:36.676Z,7.62
2023-03-17T07:13:06.014Z,7.65
2023-03-17T07:15:35.837Z,7.68
2023-03-17T07:18:03.482Z,7.71
2023-03-17T07:20:31.114Z,7.74
2023-03-17T07:22:58.984Z,7.77
2023-03-17T07:25:26.439Z,7.79
2023-03-17T07:27:54.071Z,7.85
2023-03-17T07:30:21.675Z,7.90
2023-03-17T07:32:50.552Z,7.97
2023-03-17T07:35:19.197Z,8.02
2023-03-17T07:37:47.309Z,8.07
2023-03-17T07:40:15.028Z,8.15
2023-03-17T07:42:42.614Z,8.21
2023-03-17T07:45:10.416Z,8.27
2023-03-17T07:47:37.932Z,8.34
2023-03-17T07:50:07.288Z,8.40
2023-03-17T07:52:35.335Z,8.45
2023-03-17T07:55:03.098Z,8.50
2023-03-17T07:57:30.650Z,8.54
2023-03-17T07:59:58.711Z,8.59
2023-03-17T08:02:26.359Z,8.64
2023-03-17T08:04:54.638Z,8.70
2023-03-17T08:07:23.549Z,8.74
2023-03-17T08:09:51.194Z,8.80
2023-03-17T08:12:18.800Z,8.86
2023-03-17T08:14:46.371Z,8.93
2023-03-17T08:17:13.906Z,9.02
2023-03-17T08:19:42.400Z,9.08
2023-03-17T08:22:09.908Z,9.14
2023-03-17T08:24:39.661Z,9.21
2023-03-17T08:27:07.886Z,9.28
2023-03-17T08:29:35.928Z,9.34
2023-03-17T08:32:03.609Z,9.39
2023-03-17T08:34:31.453Z,9.44
2023-03-17T08:36:58.946Z,9.50
2023-03-17T08:39:26.619Z,9.54
2023-03-17T08:41:55.671Z,9.59
2023-03-17T08:44:23.168Z,9.64
2023-03-17T08:46:51.405Z,9.67
2023-03-17T08:49:19.053Z,9.72
2023-03-17T08:51:46.544Z,9.79
2023-03-17T08:54:14.074Z,9.85
2023-03-17T08:56:41.900Z,9.94
2023-03-17T08:59:10.945Z,10.01
2023-03-17T09:01:39.913Z,10.07
2023-03-17T09:04:07.653Z,10.14
2023-03-17T09:06:35.146Z,10.19
2023-03-17T09:09:02.600Z,10.26
2023-03-17T09:11:31.530Z,10.32
2023-03-17T09:13:59.164Z,10.39
2023-03-17T09:16:28.695Z,10.48
2023-03-17T09:18:56.530Z,10.59
2023-03-17T09:21:24.048Z,10.69
2023-03-17T09:23:51.589Z,10.78
2023-03-17T09:26:20.081Z,10.85
2023-03-17T09:28:47.539Z,10.91
2023-03-17T09:31:15.207Z,10.97
2023-03-17T09:33:44.076Z,11.03
2023-03-17T09:36:12.042Z,11.06
2023-03-17T09:38:39.637Z,11.10
2023-03-17T09:41:13.006Z,11.15
2023-03-17T09:43:41.529Z,11.21
2023-03-17T09:46:11.248Z,11.26
2023-03-17T09:48:52.708Z,11.33
2023-03-17T09:51:20.434Z,11.43
2023-03-17T09:53:50.139Z,11.51
2023-03-17T09:56:17.861Z,11.59
2023-03-17T09:58:48.526Z,11.68
2023-03-17T10:01:17.705Z,11.72
2023-03-17T10:03:45.255Z,11.76
2023-03-17T10:06:32.206Z,11.82
2023-03-17T10:09:02.338Z,11.87
2023-03-17T10:11:33.390Z,11.88
2023-03-17T10:14:01.954Z,11.91
2023-03-17T10:16:32.196Z,11.94
2023-03-17T10:19:00.573Z,12.02
2023-03-17T10:21:28.492Z,12.11
2023-03-17T10:23:57.393Z,12.23
2023-03-17T10:26:28.679Z,12.35
2023-03-17T10:28:56.215Z,12.48
2023-03-17T10:31:28.114Z,12.63
2023-03-17T10:33:55.691Z,12.73
2023-03-17T10:36:34.679Z,12.78
2023-03-17T10:39:02.448Z,12.80
2023-03-17T10:41:31.307Z,12.84
2023-03-17T10:43:59.386Z,12.88
2023-03-17T10:46:29.871Z,12.96
2023-03-17T10:48:58.228Z,13.03
2023-03-17T10:51:30.653Z,13.09
2023-03-17T10:53:58.862Z,13.11
2023-03-17T10:56:27.518Z,13.11
2023-03-17T10:58:56.943Z,13.11
2023-03-17T11:01:27.046Z,13.11
2023-03-17T11:03:54.645Z,13.09
2023-03-17T11:06:27.012Z,13.07
2023-03-17T11:08:55.390Z,13.05
2023-03-17T11:11:24.087Z,13.04
2023-03-17T11:13:51.772Z,13.02
2023-03-17T11:16:23.092Z,13.01
2023-03-17T11:18:51.859Z,13.04
2023-03-17T11:21:19.946Z,13.08
2023-03-17T11:23:49.066Z,13.14
2023-03-17T11:26:22.951Z,13.20
2023-03-17T11:28:51.258Z,13.27
2023-03-17T11:31:23.116Z,13.34
2023-03-17T11:33:53.297Z,13.40
2023-03-17T11:36:25.017Z,13.42
2023-03-17T11:38:55.531Z,13.41
2023-03-17T11:41:35.716Z,13.40
2023-03-17T11:44:24.412Z,13.42
2023-03-17T11:46:53.494Z,13.44
2023-03-17T11:49:22.836Z,13.46
2023-03-17T11:51:53.484Z,13.49
2023-03-17T11:54:24.677Z,13.52
2023-03-17T11:56:52.749Z,13.56
2023-03-17T11:59:25.824Z,13.60
2023-03-17T12:01:56.934Z,13.66
2023-03-17T12:04:26.497Z,13.72
2023-03-17T12:06:57.724Z,13.79
2023-03-17T12:09:26.686Z,13.87
2023-03-17T12:11:54.217Z,13.96
2023-03-17T12:14:24.680Z,14.05
2023-03-17T12:16:53.490Z,14.12
2023-03-17T12:19:23.126Z,14.20
2023-03-17T12:21:52.502Z,14.30
2023-03-17T12:24:20.840Z,14.35
2023-03-17T12:26:50.693Z,14.41
2023-03-17T12:29:20.504Z,14.52
2023-03-17T12:31:49.470Z,14.59
2023-03-17T12:34:20.396Z,14.62
2023-03-17T12:36:49.830Z,14.60
2023-03-17T12:39:17.681Z,14.58
2023-03-17T12:41:56.846Z,14.54
2023-03-17T12:44:27.895Z,14.60
2023-03-17T12:47:10.404Z,14.69
2023-03-17T12:49:45.092Z,14.80
2023-03-17T12:52:16.791Z,14.97
2023-03-17T12:54:45.824Z,15.11
2023-03-17T12:57:14.452Z,15.18
2023-03-17T12:59:42.816Z,15.23
2023-03-17T13:02:15.382Z,15.29
2023-03-17T13:04:48.774Z,15.34
2023-03-17T13:07:18.190Z,15.37
2023-03-17T13:09:47.625Z,15.41
2023-03-17T13:12:33.702Z,15.47
2023-03-17T13:15:01.284Z,15.48
2023-03-17T13:17:32.733Z,15.48
2023-03-17T13:20:10.923Z,15.53
2023-03-17T13:22:40.266Z,15.60
2023-03-17T13:25:15.712Z,15.62
2023-03-17T13:27:44.403Z,15.64
2023-03-17T13:30:33.237Z,15.68
2023-03-17T13:33:04.063Z,15.70
2023-03-17T13:35:39.037Z,15.70
2023-03-17T13:38:21.713Z,15.66
2023-03-17T13:41:04.165Z,15.61
2023-03-17T13:43:46.517Z,15.55
2023-03-17T13:46:22.245Z,15.50
2023-03-17T13:48:49.957Z,15.47
2023-03-17T13:51:20.624Z,15.41
2023-03-17T13:53:49.008Z,15.38
2023-03-17T13:56:19.030Z,15.38
2023-03-17T13:59:13.493Z,15.36
2023-03-17T14:01:43.749Z,15.34
2023-03-17T14:04:17.972Z,15.31
2023-03-17T14:06:45.498Z,15.32
2023-03-17T14:09:18.486Z,15.28
2023-03-17T14:11:46.909Z,15.32
2023-03-17T14:14:31.651Z,15.32
2023-03-17T14:17:02.254Z,15.30
2023-03-17T14:19:31.124Z,15.27
2023-03-17T14:22:04.177Z,15.23
2023-03-17T14:24:32.260Z,15.19
2023-03-17T14:27:04.359Z,15.15
2023-03-17T14:29:32.137Z,15.10
2023-03-17T14:32:02.973Z,15.05
2023-03-17T14:34:30.511Z,15.04
2023-03-17T14:36:59.627Z,14.98
2023-03-17T14:39:27.090Z,14.95
2023-03-17T14:42:04.004Z,14.92
2023-03-17T14:44:38.042Z,14.90
2023-03-17T14:47:07.357Z,14.89
2023-03-17T14:49:34.889Z,14.87
2023-03-17T14:52:02.656Z,14.85
2023-03-17T14:54:31.587Z,14.82
2023-03-17T14:57:02.238Z,14.80
2023-03-17T14:59:30.937Z,14.79
2023-03-17T15:01:58.973Z,14.76
2023-03-17T15:04:28.301Z,14.72
2023-03-17T15:06:56.208Z,14.69
2023-03-17T15:09:26.215Z,14.67
2023-03-17T15:11:54.757Z,14.63
2023-03-17T15:14:23.066Z,14.60
2023-03-17T15:16:51.395Z,14.56
2023-03-17T15:19:20.430Z,14.54
2023-03-17T15:21:49.425Z,14.52
2023-03-17T15:24:24.786Z,14.48
2023-03-17T15:26:52.304Z,14.45
2023-03-17T15:29:19.805Z,14.43
2023-03-17T15:31:47.400Z,14.39
2023-03-17T15:34:15.345Z,14.37
2023-03-17T15:36:43.545Z,14.35
2023-03-17T15:39:12.725Z,14.33
2023-03-17T15:41:40.301Z,14.31
2023-03-17T15:44:07.815Z,14.30
2023-03-17T15:46:35.280Z,14.29
2023-03-17T15:49:02.747Z,14.28
2023-03-17T15:51:30.365Z,14.26
2023-03-17T15:53:57.870Z,14.24
2023-03-17T15:56:26.960Z,14.22
2023-03-17T15:58:54.465Z,14.22
2023-03-17T16:01:22.058Z,14.18
2023-03-17T16:03:49.589Z,14.17
2023-03-17T16:06:17.822Z,14.15
2023-03-17T16:08:45.420Z,14.14
2023-03-17T16:11:17.769Z,14.12
2023-03-17T16:13:46.792Z,14.11
2023-03-17T16:16:19.464Z,14.08
2023-03-17T16:18:47.609Z,14.08
2023-03-17T16:21:15.066Z,14.07
2023-03-17T16:23:42.623Z,14.04
2023-03-17T16:26:15.864Z,14.03
2023-03-17T16:28:44.535Z,14.01
2023-03-17T16:31:21.182Z,13.98
2023-03-17T16:33:48.778Z,13.95
2023-03-17T16:36:17.189Z,13.93
2023-03-17T16:38:44.784Z,13.91
2023-03-17T16:41:16.786Z,13.89
2023-03-17T16:43:44.616Z,13.87
2023-03-17T16:46:12.653Z,13.85
2023-03-17T16:48:41.534Z,13.83
2023-03-17T16:51:09.177Z,13.81
2023-03-17T16:53:37.026Z,13.79
2023-03-17T16:56:04.510Z,13.75
2023-03-17T16:58:32.706Z,13.74
2023-03-17T17:01:01.296Z,13.72
2023-03-17T17:03:29.177Z,13.70
2023-03-17T17:05:58.059Z,13.67
2023-03-17T17:08:25.628Z,13.64
2023-03-17T17:10:53.198Z,13.61
2023-03-17T17:13:20.792Z,13.59
2023-03-17T17:15:48.431Z,13.57
2023-03-17T17:18:17.054Z,13.53
2023-03-17T17:20:45.204Z,13.50
2023-03-17T17:23:14.614Z,13.45
2023-03-17T17:25:42.358Z,13.41
2023-03-17T17:29:32.479Z,13.35
2023-03-17T17:32:00.128Z,13.31
2023-03-17T17:34:27.647Z,13.28
2023-03-17T17:36:55.267Z,13.23
2023-03-17T17:39:22.741Z,13.21
2023-03-17T17:41:50.294Z,13.17
2023-03-17T17:44:17.768Z,13.13
2023-03-17T17:46:46.718Z,13.09
2023-03-17T17:49:14.238Z,13.05
2023-03-17T17:51:41.799Z,13.03
2023-03-17T17:54:10.161Z,12.99
2023-03-17T17:56:40.129Z,12.97
2023-03-17T17:59:08.104Z,12.93
2023-03-17T18:01:35.598Z,12.90
2023-03-17T18:04:04.474Z,12.86
2023-03-17T18:06:31.995Z,12.83
2023-03-17T18:09:00.050Z,12.78
2023-03-17T18:11:27.627Z,12.76
2023-03-17T18:13:55.102Z,12.73
2023-03-17T18:16:22.637Z,12.71
2023-03-17T18:18:50.206Z,12.69
2023-03-17T18:21:19.132Z,12.66
2023-03-17T18:23:48.699Z,12.64
2023-03-17T18:26:16.637Z,12.63
2023-03-17T18:28:44.202Z,12.60
2023-03-17T18:31:14.330Z,12.58
2023-03-17T18:33:41.933Z,12.56
2023-03-17T18:36:09.772Z,12.53
2023-03-17T18:38:38.810Z,12.51
2023-03-17T18:41:06.957Z,12.50
2023-03-17T18:43:34.511Z,12.45
2023-03-17T18:46:02.010Z,12.44
2023-03-17T18:48:29.467Z,12.43
2023-03-17T18:50:56.978Z,12.41
2023-03-17T18:53:24.790Z,12.39
2023-03-17T18:55:53.663Z,12.36
2023-03-17T18:58:21.115Z,12.34
2023-03-17T19:00:49.615Z,12.31
2023-03-17T19:03:17.339Z,12.30
2023-03-17T19:05:44.920Z,12.27
2023-03-17T19:08:13.879Z,12.25
2023-03-17T19:10:43.336Z,12.25
2023-03-17T19:13:12.208Z,12.24
2023-03-17T19:15:40.382Z,12.23
2023-03-17T19:18:07.897Z,12.23
2023-03-17T19:20:36.291Z,12.24
2023-03-17T19:23:04.721Z,12.27
2023-03-17T19:25:32.309Z,12.29
2023-03-17T19:28:00.146Z,12.31
2023-03-17T19:30:29.170Z,12.32
2023-03-17T19:32:56.795Z,12.34
2023-03-17T19:35:24.333Z,12.36
2023-03-17T19:37:52.264Z,12.38
2023-03-17T19:40:19.767Z,12.40
2023-03-17T19:42:47.251Z,12.40
2023-03-17T19:45:14.905Z,12.41
2023-03-17T19:47:43.716Z,12.43
2023-03-17T19:50:11.824Z,12.44
2023-03-17T19:52:39.364Z,12.46
2023-03-17T19:55:08.419Z,12.47
2023-03-17T19:57:36.492Z,12.46
2023-03-17T20:00:04.123Z,12.47
2023-03-17T20:02:31.562Z,12.44
2023-03-17T20:05:00.473Z,12.44
2023-03-17T20:07:28.003Z,12.44
2023-03-17T20:09:55.717Z,12.45
2023-03-17T20:12:23.322Z,12.43
2023-03-17T20:14:51.062Z,12.42
2023-03-17T20:17:18.705Z,12.41
2023-03-17T20:19:46.239Z,12.39
2023-03-17T20:22:15.150Z,12.36
2023-03-17T20:24:42.604Z,12.35
2023-03-17T20:27:11.239Z,12.34
2023-03-17T20:29:38.762Z,12.32
2023-03-17T20:32:06.346Z,12.30
2023-03-17T20:34:34.702Z,12.28
2023-03-17T20:37:02.850Z,12.24
2023-03-17T20:39:32.433Z,12.22
2023-03-17T20:42:01.551Z,12.19
2023-03-17T20:44:29.009Z,12.17
2023-03-17T20:46:56.646Z,12.14
2023-03-17T20:49:24.141Z,12.12
2023-03-17T20:51:51.636Z,12.10
2023-03-17T20:54:19.071Z,12.09
2023-03-17T20:56:52.359Z,12.07
2023-03-17T20:59:19.863Z,12.06
2023-03-17T21:01:47.537Z,12.04
2023-03-17T21:04:15.998Z,12.03
2023-03-17T21:06:43.612Z,12.01
2023-03-17T21:09:11.083Z,12.00
2023-03-17T21:11:38.752Z,11.99
2023-03-17T21:14:07.996Z,11.98
2023-03-17T21:16:35.901Z,11.98
2023-03-17T21:19:06.082Z,11.96
2023-03-17T21:21:34.419Z,11.96
2023-03-17T21:24:02.728Z,11.96
2023-03-17T21:26:30.295Z,11.97
2023-03-17T21:28:57.851Z,11.97
2023-03-17T21:31:27.469Z,11.98
2023-03-17T21:33:55.521Z,11.98
2023-03-17T21:36:23.021Z,11.99
2023-03-17T21:38:50.581Z,11.98
2023-03-17T21:41:24.678Z,12.01
2023-03-17T21:43:52.131Z,12.01
2023-03-17T21:46:19.601Z,12.01
2023-03-17T21:48:48.618Z,12.03
2023-03-17T21:51:16.088Z,12.03
2023-03-17T21:53:43.495Z,12.05
2023-03-17T21:56:12.552Z,12.04
2023-03-17T21:58:40.191Z,12.04
2023-03-17T22:01:07.832Z,12.03
2023-03-17T22:03:36.549Z,12.04
2023-03-17T22:06:06.280Z,12.03
2023-03-17T22:08:34.654Z,12.04
2023-03-17T22:11:02.306Z,12.03
2023-03-17T22:13:29.785Z,12.05
2023-03-17T22:15:59.358Z,12.04
2023-03-17T22:18:27.053Z,12.05
2023-03-17T22:20:54.546Z,12.05
2023-03-17T22:23:23.743Z,12.04
2023-03-17T22:25:51.333Z,12.05
2023-03-17T22:28:19.192Z,12.04
2023-03-17T22:30:46.846Z,12.03
2023-03-17T22:33:14.386Z,12.03
2023-03-17T22:35:42.067Z,12.02
2023-03-17T22:38:09.914Z,12.02
2023-03-17T22:40:38.830Z,12.02
2023-03-17T22:43:07.248Z,12.01
2023-03-17T22:45:34.737Z,12.00
2023-03-17T22:48:02.327Z,12.00
2023-03-17T22:50:30.270Z,11.97
2023-03-17T22:52:57.966Z,11.96
2023-03-17T22:55:25.482Z,11.95
2023-03-17T22:57:54.317Z,11.95
2023-03-17T23:00:22.023Z,11.94
2023-03-17T23:02:49.549Z,11.95
2023-03-17T23:05:17.206Z,11.94
2023-03-17T23:07:51.988Z,11.94
2023-03-17T23:10:22.074Z,11.94
2023-03-17T23:12:49.715Z,11.93
2023-03-17T23:15:19.687Z,11.93
2023-03-17T23:17:47.464Z,11.93
2023-03-17T23:20:15.447Z,11.93
2023-03-17T23:22:42.932Z,11.93
2023-03-17T23:25:10.906Z,11.93
2023-03-17T23:27:38.539Z,11.93
2023-03-17T23:30:06.670Z,11.92
2023-03-17T23:32:35.837Z,11.91
2023-03-17T23:35:03.601Z,11.91
2023-03-17T23:37:31.096Z,11.91
2023-03-17T23:39:58.560Z,11.90
2023-03-17T23:42:26.156Z,11.89
2023-03-17T23:44:53.700Z,11.89
2023-03-17T23:47:22.452Z,11.88
2023-03-17T23:49:51.327Z,11.88
2023-03-17T23:52:18.844Z,11.89
2023-03-17T23:54:46.523Z,11.87
2023-03-17T23:57:14.282Z,11.87
2023-03-17T23:59:41.787Z,11.88
